TimeCST,TemperatureF,Dew PointF,Humidity,Sea Level PressureIn,VisibilityMPH,Wind Direction,Wind SpeedMPH,Gust SpeedMPH,PrecipitationIn,Events,Conditions,WindDirDegrees,DateUTC
12:15 AM,35.6,35.6,100,29.75,1.0,NE,3.5,-,N/A,,Overcast,40,2013-12-04 06:15:00
12:35 AM,35.6,35.6,100,29.75,1.2,NNE,4.6,-,N/A,,Overcast,30,2013-12-04 06:35:00
12:55 AM,35.6,35.6,100,29.75,1.2,NNE,4.6,-,N/A,,Light Drizzle,30,2013-12-04 06:55:00
1:15 AM,35.6,35.6,100,29.74,1.2,ENE,8.1,-,N/A,,Light Drizzle,60,2013-12-04 07:15:00
1:35 AM,35.6,35.6,100,29.75,0.8,NNE,4.6,-,N/A,,Overcast,30,2013-12-04 07:35:00
1:55 AM,35.6,35.6,100,29.76,0.8,NE,4.6,-,N/A,,Overcast,40,2013-12-04 07:55:00
2:15 AM,35.6,35.6,100,29.76,0.8,ENE,4.6,-,N/A,,Light Drizzle,60,2013-12-04 08:15:00
2:35 AM,35.6,35.6,100,29.75,0.8,ENE,4.6,-,N/A,,Overcast,60,2013-12-04 08:35:00
2:55 AM,35.6,35.6,100,29.74,0.5,ENE,6.9,-,N/A,Fog,Fog,60,2013-12-04 08:55:00
3:15 AM,35.6,35.6,100,29.74,0.5,ENE,5.8,-,N/A,Fog,Fog,60,2013-12-04 09:15:00
3:35 AM,35.6,35.6,100,29.74,0.5,ENE,6.9,-,N/A,,Overcast,70,2013-12-04 09:35:00
3:55 AM,35.6,35.6,100,29.74,0.5,ENE,4.6,-,N/A,,Light Drizzle,70,2013-12-04 09:55:00
4:15 AM,35.6,35.6,100,29.73,0.8,ENE,6.9,-,N/A,,Overcast,70,2013-12-04 10:15:00
4:35 AM,35.6,35.6,100,29.73,0.8,East,6.9,-,N/A,,Overcast,80,2013-12-04 10:35:00
7:45 AM,39.2,39.2,100,-9999,0.1,Calm,Calm,-,N/A,Fog,Fog,0,2013-12-04 13:45:00
8:45 AM,39.2,39.2,100,-9999,0.1,Calm,Calm,-,N/A,Fog,Fog,0,2013-12-04 14:45:00
9:45 AM,41.0,41.0,100,29.70,0.1,Calm,Calm,-,N/A,,Overcast,0,2013-12-04 15:45:00
10:15 AM,42.8,42.8,100,29.68,0.5,Calm,Calm,-,N/A,,Overcast,0,2013-12-04 16:15:00
10:45 AM,44.6,44.6,100,29.66,0.8,SE,5.8,-,N/A,,Drizzle,140,2013-12-04 16:45:00
11:45 AM,44.6,44.6,100,29.63,0.8,ESE,6.9,-,N/A,,Drizzle,120,2013-12-04 17:45:00
12:45 PM,44.6,44.6,100,29.59,0.8,ESE,6.9,-,N/A,,Overcast,120,2013-12-04 18:45:00
1:45 PM,44.6,44.6,100,29.55,1.0,ESE,9.2,-,N/A,,Overcast,120,2013-12-04 19:45:00
2:45 PM,44.6,44.6,100,29.53,1.0,ESE,9.2,-,N/A,Rain,Light Rain,120,2013-12-04 20:45:00
3:45 PM,44.6,44.6,100,29.51,1.2,SE,10.4,-,N/A,,Overcast,130,2013-12-04 21:45:00
4:15 PM,44.6,44.6,100,29.50,0.8,SE,8.1,-,N/A,,Overcast,130,2013-12-04 22:15:00
4:45 PM,44.6,44.6,100,29.49,0.5,SE,9.2,-,N/A,Fog,Fog,130,2013-12-04 22:45:00
5:45 PM,46.4,46.4,100,29.47,1.5,SSE,9.2,-,N/A,,Overcast,150,2013-12-04 23:45:00
6:45 PM,48.2,48.2,100,29.47,4.0,SSW,9.2,-,N/A,,Overcast,200,2013-12-05 00:45:00
7:45 PM,48.2,48.2,100,29.48,7.0,SW,11.5,17.3,N/A,,Overcast,230,2013-12-05 01:45:00
8:15 PM,48.2,48.2,100,29.47,7.0,SW,13.8,18.4,N/A,,Overcast,220,2013-12-05 02:15:00
8:35 PM,48.2,48.2,100,29.47,7.0,SW,15.0,24.2,N/A,,Overcast,220,2013-12-05 02:35:00
8:45 PM,48.2,48.2,100,29.48,7.0,SW,13.8,24.2,N/A,,Overcast,220,2013-12-05 02:45:00
8:55 PM,50.0,46.4,87,29.49,7.0,SW,15.0,21.9,N/A,,Overcast,220,2013-12-05 02:55:00
9:15 PM,46.4,42.8,87,29.51,10.0,SW,20.7,29.9,N/A,,Overcast,230,2013-12-05 03:15:00
9:35 PM,42.8,39.2,87,29.53,10.0,WSW,18.4,26.5,N/A,,Overcast,240,2013-12-05 03:35:00
9:55 PM,41.0,37.4,87,29.53,10.0,WSW,15.0,23.0,N/A,,Overcast,240,2013-12-05 03:55:00
10:15 PM,41.0,37.4,87,29.54,10.0,WSW,11.5,24.2,N/A,,Overcast,240,2013-12-05 04:15:00
10:35 PM,39.2,35.6,87,29.55,10.0,WSW,16.1,23.0,N/A,,Overcast,250,2013-12-05 04:35:00
10:55 PM,37.4,33.8,87,29.57,10.0,WSW,18.4,26.5,N/A,,Overcast,240,2013-12-05 04:55:00
11:15 PM,35.6,33.8,93,29.58,10.0,West,21.9,34.5,N/A,,Overcast,260,2013-12-05 05:15:00
11:35 PM,35.6,32.0,87,29.59,10.0,WSW,20.7,27.6,N/A,,Overcast,250,2013-12-05 05:35:00
11:55 PM,33.8,32.0,93,29.59,10.0,WSW,13.8,24.2,N/A,,Overcast,240,2013-12-05 05:55:00